Airfield :
LOGIN :

Register | Disclaimer

   EN    FR    IT 

 










Legend :    VFR   Marginal VFR   IFR   Intensive IFR   Very Intensive IFR
Visi :
Ceiling :
>= 8 km
>= 3000ft
5 to 8 km
1000 to 3000 ft
1500m to 5 km
500 to 1000 ft
800 to 1500m
200 to 500 ft
< 800m
< 200 ft
Symbols :   Thunderstorms  Fog  Heavy snow  Heavy precipitations  Wind > 20 kt
SIGMETs :     Misc.  Thunderstorms  Icing  Turbulence  Mountain Waves  Volcanic Ashes







- Airport Elevation : 1585 ft
- IATA code : SIR


LSGS - Sion

CURRENT METAR :
  • 262150Z AUTO 09003KT 9999 SCT070 15/10 Q1014

EXPIRED METARs :
  • 262120Z AUTO VRB02KT 9999 FEW080 16/09 Q1015
  • 262050Z AUTO VRB01KT 9999 SCT070 16/09 Q1014
  • 262020Z AUTO VRB01KT 9999 BKN070 17/09 Q1014
  • 261950Z AUTO VRB01KT 9999 NCD 17/09 Q1014
  • 261920Z AUTO 00000KT 9999 SCT070 18/09 Q1014
  • 261850Z 25006KT 9999 FEW070 SCT110 18/09 Q1014

TAF TAF LSGS
Valid from the 26 at 15:00 until the 27 at 00:00 UTC


261425Z 2615/2624 VRB03KT 9999 FEW060 BKN100
No reported NOTAMs for that airfield.



MET'MAP, your aeronautical weather chart ! - Copyright ORBIFLY December 2007 - Disclaimer

ORBIFLY MET'MAP TEAM :

Programming & Development : Alexandra Zaïnal
Concept & Development : Baudouin d'Aumeries
Co-Development & Prog : Marc-Olivier Méhu
Technical & hardware support : Manuel Goepfert

Contact : metmap@orbifly.com




SOURCES & CREDITS :

   NOAA